Time;durP1;ratioP1;P1;durP2;ratioP2;P2;SDS_P1;SDS_P2;PMS_P1;PMS_P2;Temp;Humidity;BMP_temperature;BMP_pressure;BME280_temperature;BME280_humidity;BME280_pressure;Samples;Min_cycle;Max_cycle;Signal;HPM_P1;HPM_P2
2023/06/25 00:00:38;;;;;;;3.35;1.10;;;;;;;27.22;44.41;101077.28;5072624;28;20392;-86
2023/06/25 00:03:06;;;;;;;3.03;1.00;;;;;;;27.29;44.17;101088.59;5072733;28;20040;-85
2023/06/25 00:05:34;;;;;;;1.70;0.80;;;;;;;27.15;44.32;101077.19;5072896;28;20048;-85
2023/06/25 00:08:02;;;;;;;1.40;1.02;;;;;;;27.20;44.53;101096.50;5072765;28;20130;-85
2023/06/25 00:10:30;;;;;;;2.15;0.95;;;;;;;27.15;44.30;101082.81;5071553;28;20382;-86
2023/06/25 00:12:58;;;;;;;1.63;0.90;;;;;;;27.06;44.64;101081.13;5072628;28;20048;-86
2023/06/25 00:15:27;;;;;;;0.63;0.63;;;;;;;27.03;44.61;101084.66;5071224;28;20525;-86
2023/06/25 00:17:55;;;;;;;1.70;0.80;;;;;;;27.00;44.32;101074.22;5072550;28;20036;-85
2023/06/25 00:20:26;;;;;;;0.80;0.80;;;;;;;27.21;44.36;101092.50;5072631;28;20040;-86
2023/06/25 00:22:54;;;;;;;1.25;0.77;;;;;;;27.03;44.91;101087.47;5072641;28;20688;-86
2023/06/25 00:25:34;;;;;;;1.90;0.88;;;;;;;26.98;45.08;101084.22;5071360;28;20048;-85
2023/06/25 00:28:07;;;;;;;1.58;0.90;;;;;;;27.09;44.42;101088.75;5071145;28;20048;-86
2023/06/25 00:30:37;;;;;;;1.33;1.10;;;;;;;27.08;44.50;101075.13;5071858;28;20052;-85
2023/06/25 00:33:07;;;;;;;2.72;1.63;;;;;;;26.82;45.14;101071.94;5071288;28;20048;-85
2023/06/25 00:35:50;;;;;;;1.98;1.30;;;;;;;26.80;45.57;101079.97;5072164;28;20060;-85
2023/06/25 00:38:18;;;;;;;1.50;0.90;;;;;;;26.62;46.08;101070.47;5071170;28;20049;-85
2023/06/25 00:40:46;;;;;;;2.40;1.23;;;;;;;26.53;46.24;101060.31;5071058;28;20411;-85
2023/06/25 00:43:15;;;;;;;2.05;1.10;;;;;;;26.56;45.63;101059.59;5072265;28;20499;-85
2023/06/25 00:45:44;;;;;;;2.30;1.23;;;;;;;26.79;45.88;101066.28;5072248;28;20048;-85
2023/06/25 00:48:13;;;;;;;2.05;1.02;;;;;;;26.84;45.57;101068.78;5071013;28;20471;-85
2023/06/25 00:50:41;;;;;;;0.93;0.82;;;;;;;26.79;45.64;101069.88;5072214;28;20045;-86
2023/06/25 00:53:13;;;;;;;0.85;0.60;;;;;;;26.99;44.78;101054.94;5072312;28;20479;-85
2023/06/25 00:55:41;;;;;;;0.90;0.82;;;;;;;26.94;45.13;101061.69;5071901;28;20049;-86
2023/06/25 00:58:09;;;;;;;1.10;0.73;;;;;;;26.44;46.18;101040.13;5070948;28;20051;-86
2023/06/25 01:00:37;;;;;;;3.85;0.88;;;;;;;26.42;46.34;101042.53;5070988;28;20036;-86
2023/06/25 01:03:26;;;;;;;0.73;0.73;;;;;;;26.69;46.04;101054.53;5072238;28;20051;-86
2023/06/25 01:06:35;;;;;;;1.67;0.70;;;;;;;26.67;46.15;101056.09;5071080;28;20045;-86
2023/06/25 01:09:04;;;;;;;0.80;0.70;;;;;;;26.48;46.33;101051.44;5070868;28;20052;-86
2023/06/25 01:11:35;;;;;;;3.38;1.10;;;;;;;26.34;47.04;101046.44;5072109;28;20480;-86
2023/06/25 01:14:03;;;;;;;0.80;0.80;;;;;;;26.52;46.29;101052.28;5073836;28;20052;-86
2023/06/25 01:16:31;;;;;;;1.25;0.85;;;;;;;26.52;46.27;101052.28;5074819;28;20044;-86
2023/06/25 01:19:02;;;;;;;2.20;0.90;;;;;;;26.39;46.52;101043.28;5074870;28;20052;-86
2023/06/25 01:21:34;;;;;;;1.65;0.80;;;;;;;26.42;46.74;101048.13;5076112;28;20041;-86
2023/06/25 01:24:02;;;;;;;1.55;0.95;;;;;;;26.42;46.69;101042.53;5075913;28;20040;-86
2023/06/25 01:26:30;;;;;;;1.33;0.70;;;;;;;26.36;46.35;101035.63;5075940;28;20052;-86
2023/06/25 01:28:58;;;;;;;0.80;0.80;;;;;;;26.44;46.77;101042.94;5075893;28;20049;-86
2023/06/25 01:31:30;;;;;;;3.35;0.77;;;;;;;26.51;46.06;101034.66;5074745;28;20056;-86
2023/06/25 01:33:59;;;;;;;1.17;0.70;;;;;;;26.64;46.28;101042.84;5075840;28;20049;-87
2023/06/25 01:36:27;;;;;;;2.95;0.80;;;;;;;26.63;46.37;101041.22;5074289;28;20045;-86
2023/06/25 01:38:55;;;;;;;2.30;0.75;;;;;;;26.58;46.59;101033.91;5075678;28;20044;-86
2023/06/25 01:41:23;;;;;;;1.30;1.00;;;;;;;26.66;45.94;101034.84;5074422;28;20068;-86
2023/06/25 01:43:51;;;;;;;0.85;0.63;;;;;;;26.36;46.87;101033.63;5075586;28;20049;-86
2023/06/25 01:46:19;;;;;;;1.33;0.73;;;;;;;26.49;46.92;101036.22;5057862;28;20055;-87
2023/06/25 01:48:47;;;;;;;1.20;0.50;;;;;;;26.07;47.71;101027.56;5075393;28;20040;-87
2023/06/25 01:51:15;;;;;;;0.57;0.57;;;;;;;26.27;47.29;101038.69;5074220;28;20377;-87
2023/06/25 01:53:43;;;;;;;0.98;0.77;;;;;;;26.34;47.45;101032.41;5074058;28;20045;-86
2023/06/25 01:56:11;;;;;;;2.35;0.60;;;;;;;26.14;47.92;101029.66;5073796;28;20052;-87
2023/06/25 01:58:39;;;;;;;0.60;0.60;;;;;;;26.20;47.89;101019.72;5074093;28;20048;-86
2023/06/25 02:01:07;;;;;;;1.42;0.90;;;;;;;26.25;47.56;101030.66;5074137;28;20049;-85
2023/06/25 02:03:35;;;;;;;0.40;0.40;;;;;;;26.40;47.40;101031.66;5074062;28;20052;-85
2023/06/25 02:06:03;;;;;;;0.52;0.50;;;;;;;26.43;47.24;101032.91;5074087;28;20395;-85
2023/06/25 02:08:31;;;;;;;0.85;0.60;;;;;;;26.49;47.61;101036.22;5073915;28;20040;-85
2023/06/25 02:11:00;;;;;;;0.98;0.50;;;;;;;26.39;47.65;101032.88;5073865;28;20040;-85
2023/06/25 02:13:28;;;;;;;0.63;0.60;;;;;;;26.02;48.82;101025.91;5074844;28;20518;-85
2023/06/25 02:15:56;;;;;;;1.13;0.50;;;;;;;26.08;48.48;101015.16;5073645;28;20056;-85
2023/06/25 02:18:24;;;;;;;0.77;0.60;;;;;;;26.26;48.09;101023.88;5073707;28;20040;-85
2023/06/25 02:20:53;;;;;;;2.17;0.70;;;;;;;26.05;47.89;101017.91;5073754;28;20048;-85
2023/06/25 02:23:22;;;;;;;0.60;0.60;;;;;;;26.13;48.53;101019.63;5074766;28;20056;-85
2023/06/25 02:25:50;;;;;;;1.52;0.57;;;;;;;26.10;48.38;101014.78;5073036;28;20438;-85
2023/06/25 02:28:18;;;;;;;0.38;0.35;;;;;;;26.26;48.15;101023.06;5073519;28;20399;-85
2023/06/25 02:30:47;;;;;;;2.78;0.70;;;;;;;26.23;48.37;101004.16;5057660;28;20052;-85
2023/06/25 02:33:15;;;;;;;1.75;0.60;;;;;;;25.93;48.68;101016.91;5074799;28;20048;-86
2023/06/25 02:35:43;;;;;;;1.15;0.52;;;;;;;25.87;49.20;101012.81;5073270;28;20044;-86
2023/06/25 02:38:11;;;;;;;16.15;1.58;;;;;;;25.93;49.16;101005.72;5074623;28;20052;-85
2023/06/25 02:40:39;;;;;;;18.92;2.72;;;;;;;25.76;49.58;101018.25;5073363;28;20383;-86
2023/06/25 02:43:07;;;;;;;13.38;1.67;;;;;;;25.59;50.12;101002.72;5074547;28;20484;-86
2023/06/25 02:45:35;;;;;;;0.98;0.70;;;;;;;25.49;50.62;100998.53;5073345;28;20055;-86
2023/06/25 02:48:05;;;;;;;1.13;0.70;;;;;;;25.53;50.27;101009.81;5073155;28;20048;-86
2023/06/25 02:50:33;;;;;;;2.60;0.80;;;;;;;25.57;50.23;100994.69;5073232;28;20044;-86
2023/06/25 02:53:01;;;;;;;0.63;0.63;;;;;;;25.80;49.83;101012.72;5072627;28;20056;-85
2023/06/25 02:55:29;;;;;;;1.40;0.63;;;;;;;25.90;49.48;101012.06;5074055;28;20052;-85
2023/06/25 02:57:57;;;;;;;0.70;0.70;;;;;;;25.66;49.58;100996.44;5072946;28;20044;-85
2023/06/25 03:00:25;;;;;;;0.98;0.73;;;;;;;25.59;50.55;101002.72;5073119;28;20036;-85
2023/06/25 03:02:53;;;;;;;2.17;1.10;;;;;;;25.58;50.19;100995.50;5072868;28;20037;-86
2023/06/25 03:05:21;;;;;;;0.68;0.50;;;;;;;25.60;50.34;101004.34;5072818;28;20063;-86
2023/06/25 03:07:56;;;;;;;2.47;1.10;;;;;;;25.36;51.15;100998.72;5072765;28;20041;-86
2023/06/25 03:10:29;;;;;;;0.77;0.43;;;;;;;25.57;50.48;101005.91;5074150;28;20419;-86
2023/06/25 03:12:58;;;;;;;0.82;0.60;;;;;;;25.45;51.09;101006.06;5073816;28;20071;-86
2023/06/25 03:15:26;;;;;;;1.17;0.75;;;;;;;25.33;51.27;101013.44;5056144;28;20055;-86
2023/06/25 03:17:54;;;;;;;0.70;0.70;;;;;;;25.15;52.14;101007.53;5073689;28;20052;-86
2023/06/25 03:20:22;;;;;;;0.68;0.47;;;;;;;25.06;52.21;101009.72;5056258;28;20041;-86
2023/06/25 03:22:50;;;;;;;1.15;0.60;;;;;;;25.23;52.82;101011.28;5072562;28;20480;-87
2023/06/25 03:25:18;;;;;;;0.93;0.57;;;;;;;24.99;52.66;101013.22;5073731;28;20048;-86
2023/06/25 03:27:53;;;;;;;1.20;0.73;;;;;;;25.02;52.50;101003.28;5072553;28;20048;-86
2023/06/25 03:30:21;;;;;;;1.42;0.73;;;;;;;25.00;52.59;101012.03;5073495;28;20056;-87
2023/06/25 03:32:49;;;;;;;2.53;1.10;;;;;;;25.14;52.18;101010.69;5072374;28;20048;-86
2023/06/25 03:35:18;;;;;;;1.33;0.80;;;;;;;25.14;52.36;101014.31;5071820;28;20041;-86
2023/06/25 03:37:46;;;;;;;1.30;0.68;;;;;;;25.26;52.27;101020.94;5071464;28;20045;-87
2023/06/25 03:40:14;;;;;;;1.95;0.65;;;;;;;25.06;52.75;101009.72;5072199;28;20071;-86
2023/06/25 03:42:43;;;;;;;2.85;1.00;;;;;;;25.26;52.47;101012.53;5072057;28;20045;-86
2023/06/25 03:45:13;;;;;;;2.92;1.38;;;;;;;25.08;52.62;101013.00;5055677;28;20428;-86
2023/06/25 03:47:41;;;;;;;0.80;0.80;;;;;;;25.17;52.95;101015.56;5072043;28;20052;-86
2023/06/25 03:50:10;;;;;;;0.90;0.60;;;;;;;25.14;52.95;101005.09;5055625;28;20491;-86
2023/06/25 03:52:38;;;;;;;0.57;0.57;;;;;;;25.11;53.21;101009.44;5071995;28;20044;-86
2023/06/25 03:55:07;;;;;;;2.83;0.68;;;;;;;25.21;52.75;101011.63;5055123;28;20045;-86
2023/06/25 03:57:36;;;;;;;1.08;0.68;;;;;;;24.96;54.27;101013.94;5072830;28;20048;-86
2023/06/25 04:00:06;;;;;;;1.23;0.90;;;;;;;24.98;54.38;101019.19;5071831;28;20399;-86
2023/06/25 04:02:39;;;;;;;1.70;1.05;;;;;;;24.68;55.36;101015.75;5089290;28;20039;-86
2023/06/25 04:05:08;;;;;;;1.40;0.80;;;;;;;24.62;55.20;101008.81;5092034;28;20501;-86
2023/06/25 04:07:36;;;;;;;3.40;1.00;;;;;;;24.68;54.96;101015.75;5091213;28;20043;-86
2023/06/25 04:10:04;;;;;;;0.80;0.70;;;;;;;24.58;55.26;101002.34;5092064;28;20497;-86
2023/06/25 04:12:32;;;;;;;2.20;0.80;;;;;;;24.76;54.75;101007.50;5091257;28;20052;-86
2023/06/25 04:15:01;;;;;;;0.65;0.63;;;;;;;24.79;54.98;101024.38;5091728;28;20051;-86
2023/06/25 04:17:30;;;;;;;4.07;0.90;;;;;;;24.75;55.00;101023.50;5091102;28;20052;-86
2023/06/25 04:19:57;;;;;;;2.97;1.17;;;;;;;24.58;55.65;101007.94;5091708;28;20051;-87
2023/06/25 04:22:25;;;;;;;1.20;0.88;;;;;;;24.69;55.22;101025.75;5074995;28;20087;-86
2023/06/25 04:24:54;;;;;;;1.20;1.00;;;;;;;24.76;54.91;101018.69;5091597;28;20048;-86
2023/06/25 04:27:22;;;;;;;1.10;0.82;;;;;;;24.73;55.64;101013.84;5091479;28;20044;-87
2023/06/25 04:29:50;;;;;;;1.05;0.98;;;;;;;24.64;56.22;101025.25;5091256;28;20039;-87
2023/06/25 04:32:18;;;;;;;2.83;0.82;;;;;;;24.50;56.09;101011.75;5091410;28;20055;-86
2023/06/25 04:34:46;;;;;;;1.35;0.63;;;;;;;24.54;56.15;101012.66;5092461;28;20040;-85
2023/06/25 04:37:14;;;;;;;1.20;1.10;;;;;;;24.73;55.32;101017.44;5090796;28;20070;-86
2023/06/25 04:39:42;;;;;;;0.77;0.77;;;;;;;24.91;55.34;101020.66;5091353;28;20518;-85
2023/06/25 04:42:11;;;;;;;2.10;0.93;;;;;;;25.03;55.07;101024.47;5091613;28;20052;-84
2023/06/25 04:44:39;;;;;;;1.55;1.00;;;;;;;24.76;55.79;101013.09;5078617;28;20041;-83
2023/06/25 04:47:07;;;;;;;0.80;0.70;;;;;;;24.80;55.60;101020.41;5090828;28;20067;-84
2023/06/25 04:49:35;;;;;;;6.00;0.90;;;;;;;24.79;56.36;101012.38;5090826;28;20052;-84
2023/06/25 04:52:04;;;;;;;4.95;1.08;;;;;;;25.11;55.60;101026.22;5092122;28;20422;-83
2023/06/25 04:54:32;;;;;;;2.45;1.00;;;;;;;25.12;54.84;101013.06;5089521;28;20048;-84
2023/06/25 04:57:00;;;;;;;2.05;0.88;;;;;;;25.15;54.33;101017.91;5091202;28;20044;-84
2023/06/25 04:59:28;;;;;;;1.90;0.80;;;;;;;25.19;54.31;101030.81;5088687;28;20039;-85
2023/06/25 05:01:56;;;;;;;2.78;1.02;;;;;;;25.35;53.72;101032.69;5091593;28;20040;-84
2023/06/25 05:04:24;;;;;;;5.93;0.63;;;;;;;25.45;53.64;101031.28;5092135;28;20047;-84
2023/06/25 05:06:52;;;;;;;1.35;1.00;;;;;;;25.40;53.79;101035.19;5092206;28;20487;-85
2023/06/25 05:09:20;;;;;;;1.20;1.00;;;;;;;25.51;53.32;101035.38;5091551;28;20043;-86
2023/06/25 05:11:48;;;;;;;0.77;0.60;;;;;;;25.59;53.32;101025.97;5091668;28;20502;-85
2023/06/25 05:14:16;;;;;;;0.85;0.60;;;;;;;25.61;52.87;101034.00;5090854;28;20052;-85
2023/06/25 05:16:44;;;;;;;1.48;0.80;;;;;;;25.81;52.18;101047.97;5092047;28;20048;-84
2023/06/25 05:19:12;;;;;;;1.35;0.70;;;;;;;25.91;51.66;101044.53;5091882;28;20055;-86
2023/06/25 05:21:40;;;;;;;1.73;0.77;;;;;;;25.97;51.74;101040.22;5092203;28;20041;-85
2023/06/25 05:24:08;;;;;;;1.10;0.80;;;;;;;26.06;51.48;101041.94;5092115;28;20044;-84
2023/06/25 05:26:36;;;;;;;2.05;0.70;;;;;;;25.94;51.95;101049.38;5090907;28;20052;-85
2023/06/25 05:29:04;;;;;;;2.65;0.73;;;;;;;25.97;52.17;101045.84;5092065;28;20044;-86
2023/06/25 05:31:32;;;;;;;1.58;1.25;;;;;;;25.90;52.40;101028.88;5088467;28;20498;-85
2023/06/25 05:34:00;;;;;;;0.90;0.70;;;;;;;26.03;52.72;101049.13;5091518;28;20040;-85
2023/06/25 05:36:29;;;;;;;1.42;1.08;;;;;;;26.10;52.51;101049.22;5090644;28;20048;-84
2023/06/25 05:38:56;;;;;;;1.38;0.80;;;;;;;26.00;52.70;101039.47;5091976;28;20044;-85
2023/06/25 05:41:24;;;;;;;3.17;1.00;;;;;;;26.10;52.84;101038.00;5090504;28;20061;-85
2023/06/25 05:43:52;;;;;;;1.83;0.70;;;;;;;26.20;52.72;101038.56;5091836;28;20387;-85
2023/06/25 05:46:20;;;;;;;0.68;0.63;;;;;;;26.20;52.42;101039.34;5090584;28;20379;-85
2023/06/25 05:48:48;;;;;;;1.80;0.80;;;;;;;26.25;52.00;101041.88;5091897;28;20044;-85
2023/06/25 05:51:16;;;;;;;0.82;0.60;;;;;;;26.25;51.96;101039.06;5091674;28;20051;-85
2023/06/25 05:53:45;;;;;;;1.88;0.70;;;;;;;26.44;51.94;101051.38;5090616;28;20487;-86
2023/06/25 05:56:13;;;;;;;0.52;0.30;;;;;;;26.56;51.23;101053.16;5091879;28;20508;-85
2023/06/25 05:58:44;;;;;;;0.50;0.50;;;;;;;26.64;50.42;101048.44;5091813;28;20402;-85
2023/06/25 06:01:12;;;;;;;1.05;0.70;;;;;;;26.55;49.91;101043.91;5094662;28;20780;-84
2023/06/25 06:03:40;;;;;;;1.15;0.60;;;;;;;26.79;49.83;101057.88;5099508;28;20044;-85
2023/06/25 06:06:09;;;;;;;0.55;0.55;;;;;;;26.69;49.58;101046.09;5102641;28;20043;-85
2023/06/25 06:08:37;;;;;;;1.85;0.63;;;;;;;26.93;48.81;101044.03;5106872;28;20062;-85
2023/06/25 06:11:06;;;;;;;1.00;0.63;;;;;;;27.04;49.30;101049.81;5108240;28;20043;-85
2023/06/25 06:13:34;;;;;;;0.93;0.70;;;;;;;27.08;48.99;101049.84;5095948;28;20040;-86
2023/06/25 06:16:03;;;;;;;1.63;0.82;;;;;;;27.12;48.23;101047.06;5093762;28;20403;-86
2023/06/25 06:18:31;;;;;;;1.73;0.77;;;;;;;27.08;47.58;101045.00;5094810;28;20519;-86
2023/06/25 06:20:59;;;;;;;1.58;0.60;;;;;;;27.27;46.63;101050.84;5094915;28;20399;-85
2023/06/25 06:23:28;;;;;;;3.00;0.77;;;;;;;27.35;46.04;101058.16;5094997;28;20048;-85
2023/06/25 06:25:56;;;;;;;0.80;0.80;;;;;;;27.19;45.35;101059.19;5095108;28;20036;-86
2023/06/25 06:28:24;;;;;;;5.97;1.00;;;;;;;27.22;45.69;101050.00;5094852;28;20114;-86
2023/06/25 06:30:53;;;;;;;1.10;0.77;;;;;;;27.36;44.79;101038.09;5073154;28;20052;-86
2023/06/25 06:33:21;;;;;;;1.48;0.93;;;;;;;27.47;44.91;101054.28;5073377;28;20356;-86
2023/06/25 06:35:50;;;;;;;1.88;1.02;;;;;;;27.54;44.94;101064.78;5074518;28;20037;-86
2023/06/25 06:38:18;;;;;;;0.77;0.77;;;;;;;27.45;45.06;101060.28;5090171;28;20055;-86
2023/06/25 06:40:46;;;;;;;1.10;0.93;;;;;;;27.20;45.24;101057.19;5093447;28;20040;-86
2023/06/25 06:43:15;;;;;;;1.40;1.00;;;;;;;27.39;45.43;101046.94;5094555;28;20399;-86
2023/06/25 06:45:43;;;;;;;1.35;0.80;;;;;;;27.59;44.76;101044.78;5093701;28;20040;-86
2023/06/25 06:48:11;;;;;;;1.95;1.02;;;;;;;27.65;45.36;101042.44;5097199;28;20056;-86
2023/06/25 06:50:40;;;;;;;18.17;2.53;;;;;;;27.80;46.18;101051.81;5098129;28;20051;-87
2023/06/25 06:53:09;;;;;;;12.68;1.45;;;;;;;27.85;43.72;101046.63;5097509;28;20043;-87
2023/06/25 06:55:37;;;;;;;7.30;0.90;;;;;;;27.89;43.90;101053.09;5098289;28;20051;-86
2023/06/25 06:58:06;;;;;;;1.40;0.93;;;;;;;27.82;44.05;101036.16;5098634;28;20044;-87
2023/06/25 07:00:34;;;;;;;10.13;1.20;;;;;;;27.83;43.37;101051.00;5097653;28;20048;-87
2023/06/25 07:03:02;;;;;;;1.98;0.90;;;;;;;28.02;43.59;101050.75;5099563;28;20044;-86
2023/06/25 07:05:31;;;;;;;1.42;1.15;;;;;;;28.13;42.89;101036.81;5098372;28;20047;-86
2023/06/25 07:07:59;;;;;;;1.40;0.98;;;;;;;28.13;43.10;101041.59;5081415;28;20051;-87
2023/06/25 07:10:28;;;;;;;2.38;1.20;;;;;;;28.33;42.73;101042.19;5099728;28;20051;-87
2023/06/25 07:12:56;;;;;;;1.95;0.80;;;;;;;28.49;42.70;101046.72;5098245;28;20051;-86
2023/06/25 07:15:25;;;;;;;0.43;0.43;;;;;;;28.51;42.39;101035.84;5098734;28;20048;-87
2023/06/25 07:17:53;;;;;;;0.82;0.82;;;;;;;28.47;40.58;101043.47;5100575;28;20040;-88
2023/06/25 07:20:22;;;;;;;1.77;0.90;;;;;;;28.48;41.28;101039.47;5111653;28;20043;-86
2023/06/25 07:22:50;;;;;;;1.45;0.73;;;;;;;28.55;41.13;101042.31;5113185;28;20040;-88
2023/06/25 07:25:19;;;;;;;1.10;1.05;;;;;;;28.65;40.80;101040.75;5105120;28;20043;-89
2023/06/25 07:27:48;;;;;;;0.90;0.90;;;;;;;28.67;40.30;101033.53;5076531;28;20059;-87
2023/06/25 07:30:17;;;;;;;1.08;0.90;;;;;;;28.67;40.45;101036.34;5092165;28;20406;-88
2023/06/25 07:32:45;;;;;;;1.35;1.00;;;;;;;28.57;40.11;101034.28;5092051;28;20395;-87
2023/06/25 07:35:13;;;;;;;1.55;1.05;;;;;;;28.67;39.32;101041.97;5094292;28;20394;-88
2023/06/25 07:37:42;;;;;;;1.15;1.00;;;;;;;28.73;37.53;101035.97;5091077;28;20044;-86
2023/06/25 07:40:10;;;;;;;1.83;1.20;;;;;;;28.68;38.07;101028.69;5091877;28;20043;-88
2023/06/25 07:42:38;;;;;;;2.10;1.40;;;;;;;28.63;35.53;101034.72;5074433;28;20505;-87
2023/06/25 07:45:08;;;;;;;2.08;1.40;;;;;;;28.64;36.87;101023.03;5091445;28;20067;-87
2023/06/25 07:47:38;;;;;;;1.55;1.38;;;;;;;28.61;37.04;101026.66;5092194;28;20056;-86
2023/06/25 07:50:07;;;;;;;8.63;1.88;;;;;;;28.71;36.29;101027.91;5093081;28;20048;-86
2023/06/25 07:52:35;;;;;;;1.88;1.67;;;;;;;28.72;36.10;101012.63;5091738;28;20044;-86
2023/06/25 07:55:05;;;;;;;3.40;1.73;;;;;;;28.73;35.96;101025.50;5092917;28;20044;-86
2023/06/25 07:57:33;;;;;;;1.40;1.23;;;;;;;28.80;35.04;101024.72;5093239;28;20055;-85
2023/06/25 08:00:03;;;;;;;2.90;1.30;;;;;;;28.65;35.45;101023.88;5094199;28;20051;-86
2023/06/25 08:02:39;;;;;;;2.20;1.45;;;;;;;28.70;35.82;101009.41;5094593;28;20047;-86
2023/06/25 08:05:08;;;;;;;3.08;1.40;;;;;;;28.94;36.00;101019.16;5096646;28;20052;-85
2023/06/25 08:07:37;;;;;;;1.50;1.10;;;;;;;28.93;35.70;101023.19;5097448;28;20055;-87
2023/06/25 08:10:06;;;;;;;4.28;1.30;;;;;;;28.99;34.33;101020.00;5095716;28;20051;-86
2023/06/25 08:12:34;;;;;;;1.70;1.60;;;;;;;28.85;34.37;101010.28;5094131;28;20051;-87
2023/06/25 08:15:03;;;;;;;2.35;1.08;;;;;;;29.04;36.02;101019.63;5094494;28;20086;-85
2023/06/25 08:17:33;;;;;;;1.42;1.33;;;;;;;29.04;35.83;101013.97;5091373;28;20036;-86
2023/06/25 08:20:02;;;;;;;1.65;1.55;;;;;;;29.27;35.12;101007.19;5094493;28;20052;-86
2023/06/25 08:22:30;;;;;;;1.70;1.35;;;;;;;29.34;35.68;101012.84;5093249;28;20051;-86
2023/06/25 08:24:58;;;;;;;1.88;1.48;;;;;;;29.42;35.40;101013.66;5094286;28;20044;-86
2023/06/25 08:27:27;;;;;;;2.05;1.40;;;;;;;29.34;34.91;101010.84;5095752;28;20051;-87
2023/06/25 08:29:55;;;;;;;2.90;1.33;;;;;;;29.35;34.42;101017.28;5095371;28;20257;-86
2023/06/25 08:32:23;;;;;;;1.70;1.35;;;;;;;29.35;33.58;101006.81;5108287;28;20048;-87
2023/06/25 08:34:52;;;;;;;2.00;1.40;;;;;;;29.28;34.06;101006.00;5111770;28;20040;-87
2023/06/25 08:37:20;;;;;;;2.55;1.70;;;;;;;29.49;35.36;101008.06;5093558;28;20060;-88
2023/06/25 08:39:49;;;;;;;1.55;1.45;;;;;;;29.56;35.12;101007.28;5084678;28;20036;-87
2023/06/25 08:42:17;;;;;;;1.70;1.60;;;;;;;29.60;33.54;101005.25;5092344;28;20415;-88
2023/06/25 08:44:46;;;;;;;2.03;1.83;;;;;;;29.66;33.28;101012.09;5089779;28;20526;-87
2023/06/25 08:47:19;;;;;;;1.73;1.55;;;;;;;29.69;33.30;101005.66;5092085;28;20048;-86
2023/06/25 08:49:50;;;;;;;10.63;1.80;;;;;;;29.67;32.92;101015.72;5073800;28;20048;-88
2023/06/25 08:52:20;;;;;;;1.50;1.20;;;;;;;29.55;33.28;101008.44;5087476;28;20053;-86
2023/06/25 08:54:50;;;;;;;3.40;1.45;;;;;;;29.70;33.29;101004.44;5072442;28;20380;-86
2023/06/25 08:57:19;;;;;;;1.90;1.40;;;;;;;29.83;33.38;101004.03;5071832;28;20674;-86
2023/06/25 08:59:47;;;;;;;1.30;1.20;;;;;;;29.90;33.72;101006.84;5070765;28;20048;-86
2023/06/25 09:02:16;;;;;;;1.92;1.50;;;;;;;29.86;33.54;101006.84;5071821;28;20071;-87
2023/06/25 09:04:46;;;;;;;1.83;1.55;;;;;;;29.81;34.28;101009.28;5070636;28;20055;-86
2023/06/25 09:07:19;;;;;;;1.27;1.17;;;;;;;29.84;34.09;100995.19;5070562;28;20045;-87
2023/06/25 09:09:54;;;;;;;1.75;1.50;;;;;;;29.98;33.71;101002.81;5071896;28;20071;-87
2023/06/25 09:12:25;;;;;;;2.00;1.52;;;;;;;30.20;33.56;100999.97;5071824;28;20044;-86
2023/06/25 09:14:56;;;;;;;3.95;1.38;;;;;;;30.11;34.20;101002.44;5072080;28;20055;-86
2023/06/25 09:17:25;;;;;;;2.53;1.50;;;;;;;30.07;33.57;100993.94;5072096;28;20040;-86
2023/06/25 09:19:54;;;;;;;1.58;1.42;;;;;;;30.14;33.56;100991.13;5072015;28;20049;-87
2023/06/25 09:22:22;;;;;;;1.58;1.48;;;;;;;30.13;34.11;100991.53;5072174;28;20045;-86
2023/06/25 09:24:50;;;;;;;2.20;1.45;;;;;;;30.24;33.69;101000.78;5072133;28;20051;-86
2023/06/25 09:27:20;;;;;;;4.53;1.60;;;;;;;30.23;33.31;100993.53;5070953;28;20068;-87
2023/06/25 09:29:49;;;;;;;1.67;1.58;;;;;;;30.30;33.43;100995.53;5070927;28;20052;-86
2023/06/25 09:32:17;;;;;;;1.58;1.48;;;;;;;30.25;33.04;100984.66;5071015;28;20048;-89
2023/06/25 09:34:46;;;;;;;1.58;1.27;;;;;;;30.44;34.11;100983.38;5072320;28;20048;-87
2023/06/25 09:37:14;;;;;;;2.60;1.80;;;;;;;30.45;34.55;100985.00;5075279;28;20067;-86
2023/06/25 09:39:43;;;;;;;1.88;1.77;;;;;;;30.38;34.82;100979.38;5080076;28;20052;-86
2023/06/25 09:42:12;;;;;;;1.40;1.27;;;;;;;30.57;34.44;100992.22;5098079;28;20047;-86
2023/06/25 09:44:41;;;;;;;1.45;1.35;;;;;;;30.07;34.52;100985.47;5098424;28;20047;-87
2023/06/25 09:47:15;;;;;;;2.83;1.60;;;;;;;30.26;34.52;100978.59;5083405;28;20089;-86
2023/06/25 09:49:44;;;;;;;1.75;1.60;;;;;;;30.10;34.11;100973.41;5076347;28;20044;-88
2023/06/25 09:52:14;;;;;;;2.97;1.45;;;;;;;30.33;34.35;100974.94;5041984;28;20049;-87
2023/06/25 09:54:44;;;;;;;1.95;1.77;;;;;;;30.40;33.63;100968.50;5076309;28;20052;-87
2023/06/25 09:57:16;;;;;;;2.30;1.48;;;;;;;30.73;34.02;100977.66;5075422;28;20396;-87
2023/06/25 09:59:45;;;;;;;1.48;1.20;;;;;;;30.46;33.88;100978.16;5073551;28;20419;-86
2023/06/25 10:02:15;;;;;;;2.90;1.63;;;;;;;30.43;34.83;100973.31;5073756;28;20376;-87
2023/06/25 10:04:44;;;;;;;3.05;1.60;;;;;;;30.67;33.54;100965.13;5074434;28;20048;-85
2023/06/25 10:07:14;;;;;;;4.13;1.52;;;;;;;30.81;33.59;100975.59;5090757;28;20043;-86
2023/06/25 10:09:55;;;;;;;2.10;1.45;;;;;;;30.88;34.29;100974.75;5093657;28;20044;-85
2023/06/25 10:12:23;;;;;;;1.50;1.40;;;;;;;31.00;34.12;100962.97;5094654;28;20402;-85
2023/06/25 10:14:54;;;;;;;2.28;1.45;;;;;;;30.99;33.34;100975.50;5094815;28;20141;-85
2023/06/25 10:17:22;;;;;;;2.75;1.80;;;;;;;31.03;32.88;100962.13;5094418;28;20055;-85
2023/06/25 10:19:56;;;;;;;1.75;1.60;;;;;;;31.04;32.77;100966.56;5093896;28;20087;-85
2023/06/25 10:22:27;;;;;;;2.30;1.30;;;;;;;31.18;32.38;100959.22;5094367;28;20043;-86
2023/06/25 10:24:56;;;;;;;2.90;1.50;;;;;;;30.79;32.42;100955.44;5077185;28;20044;-86
2023/06/25 10:27:24;;;;;;;3.15;1.63;;;;;;;30.66;33.03;100957.88;5094286;28;20082;-89
2023/06/25 10:29:54;;;;;;;2.97;1.80;;;;;;;30.98;33.80;100962.56;5094998;28;20048;-87
2023/06/25 10:32:27;;;;;;;3.42;1.48;;;;;;;30.96;33.24;100954.53;5094918;28;20066;-86
2023/06/25 10:35:00;;;;;;;2.00;1.58;;;;;;;30.93;32.99;100952.50;5093822;28;20115;-86
2023/06/25 10:37:33;;;;;;;4.50;1.45;;;;;;;30.95;33.24;100937.97;5094635;28;20055;-86
2023/06/25 10:40:07;;;;;;;1.48;1.30;;;;;;;31.09;33.63;100946.34;5095181;28;20059;-86
2023/06/25 10:42:36;;;;;;;1.92;1.45;;;;;;;31.26;34.03;100943.81;5095201;28;20040;-86
2023/06/25 10:45:06;;;;;;;2.58;1.88;;;;;;;31.59;32.99;100935.91;5094617;28;20048;-85
2023/06/25 10:47:35;;;;;;;2.58;1.35;;;;;;;31.43;33.80;100938.47;5094961;28;20055;-86
2023/06/25 10:50:04;;;;;;;1.67;1.58;;;;;;;31.49;32.72;100928.31;5095625;28;20041;-85
2023/06/25 10:52:33;;;;;;;1.30;1.20;;;;;;;31.61;33.16;100924.16;5118633;28;20030;-86
2023/06/25 10:55:02;;;;;;;3.03;1.58;;;;;;;31.77;33.02;100932.91;5118802;28;20046;-85
2023/06/25 10:57:31;;;;;;;1.60;1.50;;;;;;;31.71;33.43;100917.59;5105200;28;20071;-85
2023/06/25 11:00:00;;;;;;;1.95;1.48;;;;;;;31.76;33.32;100936.94;5094921;28;20411;-87
2023/06/25 11:02:29;;;;;;;2.20;1.33;;;;;;;31.77;32.86;100923.63;5077255;28;20048;-85
2023/06/25 11:04:59;;;;;;;2.92;1.60;;;;;;;31.95;32.88;100909.28;5094866;28;20059;-85
2023/06/25 11:07:27;;;;;;;1.83;1.60;;;;;;;32.13;32.47;100914.75;5093083;28;20075;-86
2023/06/25 11:10:00;;;;;;;2.08;1.38;;;;;;;32.33;32.70;100899.97;5097132;28;20071;-85
2023/06/25 11:12:29;;;;;;;2.25;1.77;;;;;;;32.24;32.12;100903.31;5093932;28;20059;-86
2023/06/25 11:14:58;;;;;;;2.40;1.45;;;;;;;32.40;32.54;100905.56;5092414;28;20399;-87
2023/06/25 11:17:27;;;;;;;1.83;1.63;;;;;;;32.27;32.30;100904.50;5092754;28;20613;-86
2023/06/25 11:19:57;;;;;;;1.60;1.25;;;;;;;32.48;31.73;100911.09;5091529;28;20040;-86
2023/06/25 11:22:26;;;;;;;1.67;1.50;;;;;;;32.42;31.63;100908.78;5089233;28;20051;-86
2023/06/25 11:24:56;;;;;;;2.38;1.55;;;;;;;32.42;31.92;100903.13;5085545;28;20029;-88
2023/06/25 11:27:26;;;;;;;2.17;1.65;;;;;;;32.25;32.52;100889.97;5082707;28;20055;-86
2023/06/25 11:29:55;;;;;;;2.22;1.63;;;;;;;32.40;32.08;100893.41;5071138;28;20060;-86
2023/06/25 11:32:25;;;;;;;1.75;1.27;;;;;;;32.18;31.81;100899.34;5082251;28;20048;-85